sensor_id;sensor_type;location;lat;lon;timestamp;P1;durP1;ratioP1;P2;durP2;ratioP2
15871;SDS011;8035;51.962;7.162;2023-05-10T00:01:07;5.23;;;4.60;;
15871;SDS011;8035;51.962;7.162;2023-05-10T00:03:32;2.63;;;2.40;;
15871;SDS011;8035;51.962;7.162;2023-05-10T00:05:58;3.10;;;2.50;;
15871;SDS011;8035;51.962;7.162;2023-05-10T00:08:24;2.77;;;2.57;;
15871;SDS011;8035;51.962;7.162;2023-05-10T00:10:49;2.60;;;2.40;;
15871;SDS011;8035;51.962;7.162;2023-05-10T00:13:15;3.47;;;2.47;;
15871;SDS011;8035;51.962;7.162;2023-05-10T00:15:41;3.20;;;2.23;;
15871;SDS011;8035;51.962;7.162;2023-05-10T00:18:06;3.23;;;2.60;;
15871;SDS011;8035;51.962;7.162;2023-05-10T00:20:32;5.93;;;2.50;;
15871;SDS011;8035;51.962;7.162;2023-05-10T00:22:57;2.80;;;2.50;;
15871;SDS011;8035;51.962;7.162;2023-05-10T00:25:23;5.00;;;2.50;;
15871;SDS011;8035;51.962;7.162;2023-05-10T00:27:49;5.00;;;3.47;;
15871;SDS011;8035;51.962;7.162;2023-05-10T00:30:14;3.87;;;2.87;;
15871;SDS011;8035;51.962;7.162;2023-05-10T00:32:40;3.53;;;3.20;;
15871;SDS011;8035;51.962;7.162;2023-05-10T00:35:06;4.37;;;3.10;;
15871;SDS011;8035;51.962;7.162;2023-05-10T00:37:31;4.97;;;4.07;;
15871;SDS011;8035;51.962;7.162;2023-05-10T00:39:57;3.77;;;3.43;;
15871;SDS011;8035;51.962;7.162;2023-05-10T00:42:22;5.50;;;4.07;;
15871;SDS011;8035;51.962;7.162;2023-05-10T00:44:48;6.30;;;4.70;;
15871;SDS011;8035;51.962;7.162;2023-05-10T00:47:13;5.67;;;4.40;;
15871;SDS011;8035;51.962;7.162;2023-05-10T00:49:40;8.43;;;3.80;;
15871;SDS011;8035;51.962;7.162;2023-05-10T00:52:06;3.87;;;2.93;;
15871;SDS011;8035;51.962;7.162;2023-05-10T00:54:32;3.30;;;2.77;;
15871;SDS011;8035;51.962;7.162;2023-05-10T00:56:58;2.83;;;2.30;;
15871;SDS011;8035;51.962;7.162;2023-05-10T00:59:24;2.53;;;2.07;;
15871;SDS011;8035;51.962;7.162;2023-05-10T01:01:50;3.13;;;1.97;;
15871;SDS011;8035;51.962;7.162;2023-05-10T01:04:17;2.77;;;2.13;;
15871;SDS011;8035;51.962;7.162;2023-05-10T01:06:45;4.70;;;2.60;;
15871;SDS011;8035;51.962;7.162;2023-05-10T01:09:10;2.30;;;1.93;;
15871;SDS011;8035;51.962;7.162;2023-05-10T01:11:37;2.70;;;2.30;;
15871;SDS011;8035;51.962;7.162;2023-05-10T01:14:04;2.17;;;1.97;;
15871;SDS011;8035;51.962;7.162;2023-05-10T01:16:33;3.87;;;2.70;;
15871;SDS011;8035;51.962;7.162;2023-05-10T01:19:06;2.57;;;2.30;;
15871;SDS011;8035;51.962;7.162;2023-05-10T01:22:06;2.97;;;2.20;;
15871;SDS011;8035;51.962;7.162;2023-05-10T01:27:58;2.73;;;2.40;;
15871;SDS011;8035;51.962;7.162;2023-05-10T01:33:35;3.30;;;2.47;;
15871;SDS011;8035;51.962;7.162;2023-05-10T01:39:03;3.13;;;2.07;;
15871;SDS011;8035;51.962;7.162;2023-05-10T01:41:47;3.07;;;2.27;;
15871;SDS011;8035;51.962;7.162;2023-05-10T01:47:08;2.90;;;1.80;;
15871;SDS011;8035;51.962;7.162;2023-05-10T01:49:39;3.23;;;1.80;;
15871;SDS011;8035;51.962;7.162;2023-05-10T01:52:15;2.80;;;2.20;;
15871;SDS011;8035;51.962;7.162;2023-05-10T01:54:59;2.27;;;1.73;;
15871;SDS011;8035;51.962;7.162;2023-05-10T01:57:32;2.40;;;2.20;;
15871;SDS011;8035;51.962;7.162;2023-05-10T02:00:01;2.30;;;2.00;;
15871;SDS011;8035;51.962;7.162;2023-05-10T02:02:33;7.27;;;2.40;;
15871;SDS011;8035;51.962;7.162;2023-05-10T02:05:02;2.70;;;2.50;;
15871;SDS011;8035;51.962;7.162;2023-05-10T02:07:31;2.80;;;2.27;;
15871;SDS011;8035;51.962;7.162;2023-05-10T02:09:59;2.60;;;2.30;;
15871;SDS011;8035;51.962;7.162;2023-05-10T02:12:26;4.10;;;3.00;;
15871;SDS011;8035;51.962;7.162;2023-05-10T02:14:53;3.37;;;3.07;;
15871;SDS011;8035;51.962;7.162;2023-05-10T02:17:21;3.50;;;3.20;;
15871;SDS011;8035;51.962;7.162;2023-05-10T02:19:49;3.47;;;3.17;;
15871;SDS011;8035;51.962;7.162;2023-05-10T02:22:16;4.93;;;3.57;;
15871;SDS011;8035;51.962;7.162;2023-05-10T02:24:43;5.20;;;3.60;;
15871;SDS011;8035;51.962;7.162;2023-05-10T02:27:11;4.60;;;3.67;;
15871;SDS011;8035;51.962;7.162;2023-05-10T02:29:39;4.20;;;3.80;;
15871;SDS011;8035;51.962;7.162;2023-05-10T02:32:05;3.43;;;3.13;;
15871;SDS011;8035;51.962;7.162;2023-05-10T02:34:31;3.97;;;3.50;;
15871;SDS011;8035;51.962;7.162;2023-05-10T02:36:57;4.93;;;3.77;;
15871;SDS011;8035;51.962;7.162;2023-05-10T02:39:24;3.80;;;3.40;;
15871;SDS011;8035;51.962;7.162;2023-05-10T02:41:51;3.90;;;3.60;;
15871;SDS011;8035;51.962;7.162;2023-05-10T02:44:18;4.70;;;3.00;;
15871;SDS011;8035;51.962;7.162;2023-05-10T02:46:45;4.70;;;3.70;;
15871;SDS011;8035;51.962;7.162;2023-05-10T02:49:11;6.23;;;4.20;;
15871;SDS011;8035;51.962;7.162;2023-05-10T02:51:40;5.10;;;4.30;;
15871;SDS011;8035;51.962;7.162;2023-05-10T02:54:11;3.97;;;3.57;;
15871;SDS011;8035;51.962;7.162;2023-05-10T02:56:40;5.77;;;4.50;;
15871;SDS011;8035;51.962;7.162;2023-05-10T02:59:10;5.03;;;4.53;;
15871;SDS011;8035;51.962;7.162;2023-05-10T03:01:36;5.47;;;4.97;;
15871;SDS011;8035;51.962;7.162;2023-05-10T03:04:01;7.20;;;5.47;;
15871;SDS011;8035;51.962;7.162;2023-05-10T03:06:27;6.03;;;5.40;;
15871;SDS011;8035;51.962;7.162;2023-05-10T03:08:53;8.07;;;5.90;;
15871;SDS011;8035;51.962;7.162;2023-05-10T03:11:28;6.17;;;5.43;;
15871;SDS011;8035;51.962;7.162;2023-05-10T03:17:00;6.40;;;5.53;;
15871;SDS011;8035;51.962;7.162;2023-05-10T03:22:34;8.97;;;6.40;;
15871;SDS011;8035;51.962;7.162;2023-05-10T03:25:12;6.30;;;5.43;;
15871;SDS011;8035;51.962;7.162;2023-05-10T03:27:41;7.40;;;6.03;;
15871;SDS011;8035;51.962;7.162;2023-05-10T03:30:10;6.37;;;5.60;;
15871;SDS011;8035;51.962;7.162;2023-05-10T03:32:37;9.60;;;6.17;;
15871;SDS011;8035;51.962;7.162;2023-05-10T03:35:07;7.20;;;6.43;;
15871;SDS011;8035;51.962;7.162;2023-05-10T03:37:33;7.70;;;6.50;;
15871;SDS011;8035;51.962;7.162;2023-05-10T03:39:59;10.40;;;7.13;;
15871;SDS011;8035;51.962;7.162;2023-05-10T03:42:25;8.80;;;7.10;;
15871;SDS011;8035;51.962;7.162;2023-05-10T03:44:51;8.20;;;6.90;;
15871;SDS011;8035;51.962;7.162;2023-05-10T03:47:16;9.87;;;7.33;;
15871;SDS011;8035;51.962;7.162;2023-05-10T03:49:42;11.53;;;7.87;;
15871;SDS011;8035;51.962;7.162;2023-05-10T03:52:08;14.13;;;9.23;;
15871;SDS011;8035;51.962;7.162;2023-05-10T03:54:33;14.50;;;9.37;;
15871;SDS011;8035;51.962;7.162;2023-05-10T03:56:59;13.80;;;9.80;;
15871;SDS011;8035;51.962;7.162;2023-05-10T03:59:25;13.80;;;10.07;;
15871;SDS011;8035;51.962;7.162;2023-05-10T04:01:51;12.00;;;9.93;;
15871;SDS011;8035;51.962;7.162;2023-05-10T04:04:17;15.47;;;9.93;;
15871;SDS011;8035;51.962;7.162;2023-05-10T04:06:43;15.10;;;10.43;;
15871;SDS011;8035;51.962;7.162;2023-05-10T04:09:10;17.57;;;11.63;;
15871;SDS011;8035;51.962;7.162;2023-05-10T04:11:35;19.33;;;11.67;;
15871;SDS011;8035;51.962;7.162;2023-05-10T04:14:01;21.23;;;12.43;;
15871;SDS011;8035;51.962;7.162;2023-05-10T04:16:26;17.67;;;12.47;;
15871;SDS011;8035;51.962;7.162;2023-05-10T04:18:52;19.37;;;13.77;;
15871;SDS011;8035;51.962;7.162;2023-05-10T04:21:18;22.93;;;13.43;;
15871;SDS011;8035;51.962;7.162;2023-05-10T04:23:43;18.77;;;12.70;;
15871;SDS011;8035;51.962;7.162;2023-05-10T04:26:09;19.00;;;13.13;;
15871;SDS011;8035;51.962;7.162;2023-05-10T04:28:35;22.90;;;14.90;;
15871;SDS011;8035;51.962;7.162;2023-05-10T04:31:05;22.57;;;14.87;;
15871;SDS011;8035;51.962;7.162;2023-05-10T04:33:32;32.10;;;15.53;;
15871;SDS011;8035;51.962;7.162;2023-05-10T04:35:58;25.80;;;16.27;;
15871;SDS011;8035;51.962;7.162;2023-05-10T04:38:24;26.27;;;16.20;;
15871;SDS011;8035;51.962;7.162;2023-05-10T04:40:50;27.33;;;16.27;;
15871;SDS011;8035;51.962;7.162;2023-05-10T04:43:16;26.80;;;16.87;;
15871;SDS011;8035;51.962;7.162;2023-05-10T04:45:41;23.50;;;15.43;;
15871;SDS011;8035;51.962;7.162;2023-05-10T04:48:07;26.80;;;16.70;;
15871;SDS011;8035;51.962;7.162;2023-05-10T04:50:33;27.67;;;16.77;;
15871;SDS011;8035;51.962;7.162;2023-05-10T04:52:58;31.03;;;16.83;;
15871;SDS011;8035;51.962;7.162;2023-05-10T04:55:24;33.17;;;19.10;;
15871;SDS011;8035;51.962;7.162;2023-05-10T04:57:50;26.17;;;16.17;;
15871;SDS011;8035;51.962;7.162;2023-05-10T05:00:15;31.73;;;18.40;;
15871;SDS011;8035;51.962;7.162;2023-05-10T05:02:42;36.97;;;18.93;;
15871;SDS011;8035;51.962;7.162;2023-05-10T05:05:09;33.50;;;17.40;;
15871;SDS011;8035;51.962;7.162;2023-05-10T05:07:35;32.07;;;19.40;;
15871;SDS011;8035;51.962;7.162;2023-05-10T05:10:00;33.30;;;19.47;;
15871;SDS011;8035;51.962;7.162;2023-05-10T05:12:26;31.87;;;17.57;;
15871;SDS011;8035;51.962;7.162;2023-05-10T05:14:51;36.67;;;20.53;;
15871;SDS011;8035;51.962;7.162;2023-05-10T05:17:17;36.57;;;19.77;;
15871;SDS011;8035;51.962;7.162;2023-05-10T05:19:42;32.87;;;19.80;;
15871;SDS011;8035;51.962;7.162;2023-05-10T05:22:08;29.83;;;17.07;;
15871;SDS011;8035;51.962;7.162;2023-05-10T05:24:34;31.40;;;17.93;;
15871;SDS011;8035;51.962;7.162;2023-05-10T05:27:02;32.20;;;18.30;;
15871;SDS011;8035;51.962;7.162;2023-05-10T05:29:28;29.27;;;18.20;;
15871;SDS011;8035;51.962;7.162;2023-05-10T05:31:54;32.97;;;18.50;;
15871;SDS011;8035;51.962;7.162;2023-05-10T05:34:20;34.63;;;20.03;;
15871;SDS011;8035;51.962;7.162;2023-05-10T05:36:46;35.47;;;20.83;;
15871;SDS011;8035;51.962;7.162;2023-05-10T05:39:12;37.13;;;22.33;;
15871;SDS011;8035;51.962;7.162;2023-05-10T05:41:38;38.63;;;21.13;;
15871;SDS011;8035;51.962;7.162;2023-05-10T05:44:03;43.80;;;23.73;;
15871;SDS011;8035;51.962;7.162;2023-05-10T05:46:29;43.03;;;25.23;;
15871;SDS011;8035;51.962;7.162;2023-05-10T05:48:55;44.67;;;25.97;;
15871;SDS011;8035;51.962;7.162;2023-05-10T05:51:21;43.93;;;25.40;;
15871;SDS011;8035;51.962;7.162;2023-05-10T05:53:46;44.23;;;24.87;;
15871;SDS011;8035;51.962;7.162;2023-05-10T05:56:12;44.73;;;25.57;;
15871;SDS011;8035;51.962;7.162;2023-05-10T05:58:37;48.27;;;25.43;;
15871;SDS011;8035;51.962;7.162;2023-05-10T06:01:03;46.00;;;24.97;;
15871;SDS011;8035;51.962;7.162;2023-05-10T06:03:28;42.07;;;24.27;;
15871;SDS011;8035;51.962;7.162;2023-05-10T06:05:54;44.67;;;25.77;;
15871;SDS011;8035;51.962;7.162;2023-05-10T06:08:20;45.63;;;26.07;;
15871;SDS011;8035;51.962;7.162;2023-05-10T06:10:45;47.03;;;26.83;;
15871;SDS011;8035;51.962;7.162;2023-05-10T06:13:11;47.43;;;26.23;;
15871;SDS011;8035;51.962;7.162;2023-05-10T06:15:37;43.10;;;27.07;;
15871;SDS011;8035;51.962;7.162;2023-05-10T06:18:03;44.37;;;25.77;;
15871;SDS011;8035;51.962;7.162;2023-05-10T06:20:28;43.30;;;24.30;;
15871;SDS011;8035;51.962;7.162;2023-05-10T06:22:56;46.60;;;25.67;;
15871;SDS011;8035;51.962;7.162;2023-05-10T06:25:22;47.40;;;28.43;;
15871;SDS011;8035;51.962;7.162;2023-05-10T06:27:48;43.63;;;25.83;;
15871;SDS011;8035;51.962;7.162;2023-05-10T06:30:13;48.73;;;26.67;;
15871;SDS011;8035;51.962;7.162;2023-05-10T06:32:40;46.03;;;26.13;;
15871;SDS011;8035;51.962;7.162;2023-05-10T06:35:06;41.67;;;25.60;;
15871;SDS011;8035;51.962;7.162;2023-05-10T06:37:32;41.73;;;25.50;;
15871;SDS011;8035;51.962;7.162;2023-05-10T06:39:59;36.87;;;23.83;;
15871;SDS011;8035;51.962;7.162;2023-05-10T06:42:25;46.63;;;26.30;;
15871;SDS011;8035;51.962;7.162;2023-05-10T06:44:52;43.17;;;25.50;;
15871;SDS011;8035;51.962;7.162;2023-05-10T06:47:18;39.97;;;25.90;;
15871;SDS011;8035;51.962;7.162;2023-05-10T06:49:43;44.63;;;27.27;;
15871;SDS011;8035;51.962;7.162;2023-05-10T06:52:09;43.80;;;25.00;;
15871;SDS011;8035;51.962;7.162;2023-05-10T06:54:34;45.07;;;27.03;;
15871;SDS011;8035;51.962;7.162;2023-05-10T06:57:00;42.53;;;25.73;;
15871;SDS011;8035;51.962;7.162;2023-05-10T06:59:27;40.90;;;24.47;;
15871;SDS011;8035;51.962;7.162;2023-05-10T07:01:53;40.90;;;24.07;;
15871;SDS011;8035;51.962;7.162;2023-05-10T07:04:19;42.13;;;25.50;;
15871;SDS011;8035;51.962;7.162;2023-05-10T07:06:44;42.03;;;24.87;;
15871;SDS011;8035;51.962;7.162;2023-05-10T07:09:11;41.40;;;25.03;;
15871;SDS011;8035;51.962;7.162;2023-05-10T07:11:36;39.23;;;23.00;;
15871;SDS011;8035;51.962;7.162;2023-05-10T07:14:02;38.27;;;24.10;;
15871;SDS011;8035;51.962;7.162;2023-05-10T07:16:28;37.13;;;23.07;;
15871;SDS011;8035;51.962;7.162;2023-05-10T07:18:53;41.50;;;24.73;;
15871;SDS011;8035;51.962;7.162;2023-05-10T07:21:19;33.77;;;24.03;;
15871;SDS011;8035;51.962;7.162;2023-05-10T07:23:45;39.37;;;24.83;;
15871;SDS011;8035;51.962;7.162;2023-05-10T07:26:10;36.90;;;24.27;;
15871;SDS011;8035;51.962;7.162;2023-05-10T07:28:36;42.23;;;26.00;;
15871;SDS011;8035;51.962;7.162;2023-05-10T07:31:02;41.87;;;25.53;;
15871;SDS011;8035;51.962;7.162;2023-05-10T07:33:28;44.53;;;26.17;;
15871;SDS011;8035;51.962;7.162;2023-05-10T07:35:54;41.57;;;25.07;;
15871;SDS011;8035;51.962;7.162;2023-05-10T07:38:19;40.73;;;26.33;;
15871;SDS011;8035;51.962;7.162;2023-05-10T07:40:45;43.07;;;26.23;;
15871;SDS011;8035;51.962;7.162;2023-05-10T07:43:10;40.97;;;25.67;;
15871;SDS011;8035;51.962;7.162;2023-05-10T07:45:36;40.87;;;25.07;;
15871;SDS011;8035;51.962;7.162;2023-05-10T07:48:01;37.53;;;23.43;;
15871;SDS011;8035;51.962;7.162;2023-05-10T07:50:27;37.47;;;23.03;;
15871;SDS011;8035;51.962;7.162;2023-05-10T07:52:53;38.80;;;23.97;;
15871;SDS011;8035;51.962;7.162;2023-05-10T07:55:19;38.00;;;22.97;;
15871;SDS011;8035;51.962;7.162;2023-05-10T07:57:46;35.70;;;22.60;;
15871;SDS011;8035;51.962;7.162;2023-05-10T08:00:16;44.40;;;24.03;;
15871;SDS011;8035;51.962;7.162;2023-05-10T08:02:43;36.80;;;22.70;;
15871;SDS011;8035;51.962;7.162;2023-05-10T08:05:08;35.57;;;22.43;;
15871;SDS011;8035;51.962;7.162;2023-05-10T08:07:34;36.83;;;23.60;;
15871;SDS011;8035;51.962;7.162;2023-05-10T08:10:00;39.00;;;24.10;;
15871;SDS011;8035;51.962;7.162;2023-05-10T08:12:27;34.90;;;22.73;;
15871;SDS011;8035;51.962;7.162;2023-05-10T08:14:52;38.43;;;22.27;;
15871;SDS011;8035;51.962;7.162;2023-05-10T08:17:18;38.07;;;24.57;;
15871;SDS011;8035;51.962;7.162;2023-05-10T08:19:44;38.73;;;23.67;;
15871;SDS011;8035;51.962;7.162;2023-05-10T08:22:09;36.97;;;22.90;;
15871;SDS011;8035;51.962;7.162;2023-05-10T08:24:35;39.40;;;24.27;;
15871;SDS011;8035;51.962;7.162;2023-05-10T08:27:04;37.83;;;24.20;;
15871;SDS011;8035;51.962;7.162;2023-05-10T08:29:31;35.70;;;22.23;;
15871;SDS011;8035;51.962;7.162;2023-05-10T08:31:57;34.53;;;23.07;;
15871;SDS011;8035;51.962;7.162;2023-05-10T08:34:22;36.03;;;22.00;;
15871;SDS011;8035;51.962;7.162;2023-05-10T08:36:48;35.83;;;21.50;;
15871;SDS011;8035;51.962;7.162;2023-05-10T08:39:14;33.83;;;21.53;;
15871;SDS011;8035;51.962;7.162;2023-05-10T08:41:39;34.33;;;21.03;;
15871;SDS011;8035;51.962;7.162;2023-05-10T08:44:08;37.37;;;22.20;;
15871;SDS011;8035;51.962;7.162;2023-05-10T08:46:34;35.07;;;22.33;;
15871;SDS011;8035;51.962;7.162;2023-05-10T08:49:04;36.40;;;21.27;;
15871;SDS011;8035;51.962;7.162;2023-05-10T08:51:35;37.77;;;22.73;;
15871;SDS011;8035;51.962;7.162;2023-05-10T08:54:03;35.47;;;21.50;;
15871;SDS011;8035;51.962;7.162;2023-05-10T08:56:30;38.50;;;21.67;;
15871;SDS011;8035;51.962;7.162;2023-05-10T08:58:56;33.20;;;20.83;;
15871;SDS011;8035;51.962;7.162;2023-05-10T09:01:22;28.97;;;19.43;;
15871;SDS011;8035;51.962;7.162;2023-05-10T09:03:48;33.00;;;20.13;;
15871;SDS011;8035;51.962;7.162;2023-05-10T09:06:15;31.63;;;21.43;;
15871;SDS011;8035;51.962;7.162;2023-05-10T09:08:41;30.97;;;20.23;;
15871;SDS011;8035;51.962;7.162;2023-05-10T09:11:08;27.63;;;18.67;;
15871;SDS011;8035;51.962;7.162;2023-05-10T09:13:35;27.00;;;19.03;;
15871;SDS011;8035;51.962;7.162;2023-05-10T09:16:01;30.40;;;20.13;;
15871;SDS011;8035;51.962;7.162;2023-05-10T09:18:28;26.33;;;19.27;;
15871;SDS011;8035;51.962;7.162;2023-05-10T09:20:54;26.53;;;18.77;;
15871;SDS011;8035;51.962;7.162;2023-05-10T09:23:20;29.17;;;20.20;;
15871;SDS011;8035;51.962;7.162;2023-05-10T09:25:45;31.17;;;20.00;;
15871;SDS011;8035;51.962;7.162;2023-05-10T09:28:11;30.13;;;20.13;;
15871;SDS011;8035;51.962;7.162;2023-05-10T09:30:37;30.23;;;19.30;;
15871;SDS011;8035;51.962;7.162;2023-05-10T09:33:03;30.67;;;19.27;;
15871;SDS011;8035;51.962;7.162;2023-05-10T09:35:30;28.20;;;18.13;;
15871;SDS011;8035;51.962;7.162;2023-05-10T09:37:58;31.40;;;18.80;;
15871;SDS011;8035;51.962;7.162;2023-05-10T09:40:26;24.60;;;18.03;;
15871;SDS011;8035;51.962;7.162;2023-05-10T09:42:54;28.93;;;18.13;;
15871;SDS011;8035;51.962;7.162;2023-05-10T09:45:30;26.77;;;17.63;;
15871;SDS011;8035;51.962;7.162;2023-05-10T09:47:58;26.70;;;17.80;;
15871;SDS011;8035;51.962;7.162;2023-05-10T09:50:25;27.97;;;18.27;;
15871;SDS011;8035;51.962;7.162;2023-05-10T09:52:52;29.77;;;20.60;;
15871;SDS011;8035;51.962;7.162;2023-05-10T09:55:26;30.53;;;19.20;;
15871;SDS011;8035;51.962;7.162;2023-05-10T09:58:11;26.87;;;17.87;;
15871;SDS011;8035;51.962;7.162;2023-05-10T10:00:39;26.83;;;19.27;;
15871;SDS011;8035;51.962;7.162;2023-05-10T10:03:06;27.33;;;17.57;;
15871;SDS011;8035;51.962;7.162;2023-05-10T10:05:36;22.63;;;17.53;;
15871;SDS011;8035;51.962;7.162;2023-05-10T10:08:06;23.70;;;17.10;;
15871;SDS011;8035;51.962;7.162;2023-05-10T10:10:32;27.17;;;18.90;;
15871;SDS011;8035;51.962;7.162;2023-05-10T10:12:58;28.33;;;18.43;;
15871;SDS011;8035;51.962;7.162;2023-05-10T10:15:24;23.13;;;17.70;;
15871;SDS011;8035;51.962;7.162;2023-05-10T10:17:51;23.13;;;17.67;;
15871;SDS011;8035;51.962;7.162;2023-05-10T10:20:18;26.20;;;16.57;;
15871;SDS011;8035;51.962;7.162;2023-05-10T10:22:44;23.97;;;17.17;;
15871;SDS011;8035;51.962;7.162;2023-05-10T10:25:11;24.10;;;16.50;;
15871;SDS011;8035;51.962;7.162;2023-05-10T10:35:29;23.90;;;18.30;;
15871;SDS011;8035;51.962;7.162;2023-05-10T10:37:55;26.17;;;17.87;;
15871;SDS011;8035;51.962;7.162;2023-05-10T10:40:31;28.17;;;19.57;;
15871;SDS011;8035;51.962;7.162;2023-05-10T10:43:20;27.17;;;18.43;;
15871;SDS011;8035;51.962;7.162;2023-05-10T10:46:09;27.67;;;18.37;;
15871;SDS011;8035;51.962;7.162;2023-05-10T10:48:49;29.67;;;18.30;;
15871;SDS011;8035;51.962;7.162;2023-05-10T10:51:32;26.60;;;18.77;;
15871;SDS011;8035;51.962;7.162;2023-05-10T10:54:08;26.50;;;18.87;;
15871;SDS011;8035;51.962;7.162;2023-05-10T10:56:35;25.50;;;18.20;;
15871;SDS011;8035;51.962;7.162;2023-05-10T10:59:00;27.77;;;16.83;;
15871;SDS011;8035;51.962;7.162;2023-05-10T11:01:26;23.00;;;16.17;;
15871;SDS011;8035;51.962;7.162;2023-05-10T11:06:29;22.97;;;16.10;;
15871;SDS011;8035;51.962;7.162;2023-05-10T11:08:59;19.73;;;15.07;;
15871;SDS011;8035;51.962;7.162;2023-05-10T11:11:36;22.30;;;15.17;;
15871;SDS011;8035;51.962;7.162;2023-05-10T11:14:14;21.73;;;15.13;;
15871;SDS011;8035;51.962;7.162;2023-05-10T11:16:44;24.80;;;16.67;;
15871;SDS011;8035;51.962;7.162;2023-05-10T11:19:10;19.30;;;14.80;;
15871;SDS011;8035;51.962;7.162;2023-05-10T11:22:22;21.03;;;14.97;;
15871;SDS011;8035;51.962;7.162;2023-05-10T11:24:29;19.63;;;14.93;;
15871;SDS011;8035;51.962;7.162;2023-05-10T11:26:55;19.83;;;13.73;;
15871;SDS011;8035;51.962;7.162;2023-05-10T11:29:21;22.23;;;16.33;;
15871;SDS011;8035;51.962;7.162;2023-05-10T11:31:48;23.17;;;16.50;;
15871;SDS011;8035;51.962;7.162;2023-05-10T11:34:30;19.57;;;15.93;;
15871;SDS011;8035;51.962;7.162;2023-05-10T11:36:59;20.37;;;15.90;;
15871;SDS011;8035;51.962;7.162;2023-05-10T11:39:26;21.33;;;16.03;;
15871;SDS011;8035;51.962;7.162;2023-05-10T11:41:52;19.27;;;15.13;;
15871;SDS011;8035;51.962;7.162;2023-05-10T11:44:18;20.07;;;15.33;;
15871;SDS011;8035;51.962;7.162;2023-05-10T11:46:44;17.57;;;13.53;;
15871;SDS011;8035;51.962;7.162;2023-05-10T11:49:10;19.33;;;14.00;;
15871;SDS011;8035;51.962;7.162;2023-05-10T11:51:36;18.43;;;14.67;;
15871;SDS011;8035;51.962;7.162;2023-05-10T11:54:05;19.07;;;14.67;;
15871;SDS011;8035;51.962;7.162;2023-05-10T11:56:36;21.80;;;15.07;;
15871;SDS011;8035;51.962;7.162;2023-05-10T11:59:03;20.13;;;15.50;;
15871;SDS011;8035;51.962;7.162;2023-05-10T12:01:29;19.23;;;14.83;;
15871;SDS011;8035;51.962;7.162;2023-05-10T12:03:55;18.57;;;14.80;;
15871;SDS011;8035;51.962;7.162;2023-05-10T12:06:29;22.17;;;14.60;;
15871;SDS011;8035;51.962;7.162;2023-05-10T12:08:57;19.70;;;15.07;;
15871;SDS011;8035;51.962;7.162;2023-05-10T12:11:26;17.90;;;14.53;;
15871;SDS011;8035;51.962;7.162;2023-05-10T12:13:53;16.20;;;13.17;;
15871;SDS011;8035;51.962;7.162;2023-05-10T12:16:20;19.37;;;14.90;;
15871;SDS011;8035;51.962;7.162;2023-05-10T12:18:51;19.83;;;14.60;;
15871;SDS011;8035;51.962;7.162;2023-05-10T12:21:18;20.70;;;14.60;;
15871;SDS011;8035;51.962;7.162;2023-05-10T12:23:51;18.87;;;15.37;;
15871;SDS011;8035;51.962;7.162;2023-05-10T12:26:21;16.60;;;14.10;;
15871;SDS011;8035;51.962;7.162;2023-05-10T12:28:47;20.90;;;15.73;;
15871;SDS011;8035;51.962;7.162;2023-05-10T12:31:13;18.70;;;14.17;;
15871;SDS011;8035;51.962;7.162;2023-05-10T12:33:40;18.10;;;14.13;;
15871;SDS011;8035;51.962;7.162;2023-05-10T12:36:08;19.47;;;14.30;;
15871;SDS011;8035;51.962;7.162;2023-05-10T12:38:41;19.57;;;14.17;;
15871;SDS011;8035;51.962;7.162;2023-05-10T12:41:12;23.07;;;15.13;;
15871;SDS011;8035;51.962;7.162;2023-05-10T12:43:40;23.60;;;15.37;;
15871;SDS011;8035;51.962;7.162;2023-05-10T12:46:12;21.43;;;16.07;;
15871;SDS011;8035;51.962;7.162;2023-05-10T12:48:39;20.97;;;16.00;;
15871;SDS011;8035;51.962;7.162;2023-05-10T12:51:07;20.87;;;15.97;;
15871;SDS011;8035;51.962;7.162;2023-05-10T12:53:42;19.17;;;15.47;;
15871;SDS011;8035;51.962;7.162;2023-05-10T12:56:07;17.47;;;13.80;;
15871;SDS011;8035;51.962;7.162;2023-05-10T12:58:33;21.87;;;14.00;;
15871;SDS011;8035;51.962;7.162;2023-05-10T13:00:59;19.87;;;13.73;;
15871;SDS011;8035;51.962;7.162;2023-05-10T13:03:25;19.70;;;14.17;;
15871;SDS011;8035;51.962;7.162;2023-05-10T13:05:50;15.07;;;12.47;;
15871;SDS011;8035;51.962;7.162;2023-05-10T13:08:16;17.13;;;12.93;;
15871;SDS011;8035;51.962;7.162;2023-05-10T13:10:42;16.23;;;12.17;;
15871;SDS011;8035;51.962;7.162;2023-05-10T13:13:07;14.97;;;12.30;;
15871;SDS011;8035;51.962;7.162;2023-05-10T13:15:33;18.37;;;12.00;;
15871;SDS011;8035;51.962;7.162;2023-05-10T13:17:59;15.73;;;11.53;;
15871;SDS011;8035;51.962;7.162;2023-05-10T13:20:25;14.87;;;11.23;;
15871;SDS011;8035;51.962;7.162;2023-05-10T13:22:51;16.37;;;12.97;;
15871;SDS011;8035;51.962;7.162;2023-05-10T13:25:17;17.73;;;12.57;;
15871;SDS011;8035;51.962;7.162;2023-05-10T13:27:42;18.80;;;14.37;;
15871;SDS011;8035;51.962;7.162;2023-05-10T13:30:08;20.23;;;14.83;;
15871;SDS011;8035;51.962;7.162;2023-05-10T13:32:34;19.03;;;14.97;;
15871;SDS011;8035;51.962;7.162;2023-05-10T13:35:00;21.90;;;15.70;;
15871;SDS011;8035;51.962;7.162;2023-05-10T13:37:28;21.70;;;15.57;;
15871;SDS011;8035;51.962;7.162;2023-05-10T13:39:54;21.37;;;15.63;;
15871;SDS011;8035;51.962;7.162;2023-05-10T13:42:20;20.57;;;15.20;;
15871;SDS011;8035;51.962;7.162;2023-05-10T13:44:46;15.37;;;13.00;;
15871;SDS011;8035;51.962;7.162;2023-05-10T13:47:12;18.13;;;12.37;;
15871;SDS011;8035;51.962;7.162;2023-05-10T13:49:37;13.60;;;11.70;;
15871;SDS011;8035;51.962;7.162;2023-05-10T13:52:03;15.23;;;11.33;;
15871;SDS011;8035;51.962;7.162;2023-05-10T13:54:31;14.30;;;10.47;;
15871;SDS011;8035;51.962;7.162;2023-05-10T13:56:58;11.83;;;9.97;;
15871;SDS011;8035;51.962;7.162;2023-05-10T13:59:24;14.00;;;9.50;;
15871;SDS011;8035;51.962;7.162;2023-05-10T14:01:49;11.10;;;8.70;;
15871;SDS011;8035;51.962;7.162;2023-05-10T14:04:15;9.97;;;8.13;;
15871;SDS011;8035;51.962;7.162;2023-05-10T14:06:40;10.20;;;8.57;;
15871;SDS011;8035;51.962;7.162;2023-05-10T14:09:06;11.67;;;8.27;;
15871;SDS011;8035;51.962;7.162;2023-05-10T14:11:31;10.83;;;8.40;;
15871;SDS011;8035;51.962;7.162;2023-05-10T14:13:57;13.87;;;8.87;;
15871;SDS011;8035;51.962;7.162;2023-05-10T14:16:22;13.70;;;9.20;;
15871;SDS011;8035;51.962;7.162;2023-05-10T14:18:48;9.63;;;8.40;;
15871;SDS011;8035;51.962;7.162;2023-05-10T14:21:14;11.47;;;8.83;;
15871;SDS011;8035;51.962;7.162;2023-05-10T14:23:40;10.70;;;8.03;;
15871;SDS011;8035;51.962;7.162;2023-05-10T14:26:06;10.40;;;8.37;;
15871;SDS011;8035;51.962;7.162;2023-05-10T14:28:31;11.03;;;8.70;;
15871;SDS011;8035;51.962;7.162;2023-05-10T14:30:57;14.20;;;10.13;;
15871;SDS011;8035;51.962;7.162;2023-05-10T14:33:23;11.27;;;8.93;;
15871;SDS011;8035;51.962;7.162;2023-05-10T14:35:49;12.80;;;9.23;;
15871;SDS011;8035;51.962;7.162;2023-05-10T14:38:15;12.37;;;9.60;;
15871;SDS011;8035;51.962;7.162;2023-05-10T14:40:41;12.13;;;9.10;;
15871;SDS011;8035;51.962;7.162;2023-05-10T14:43:07;11.47;;;9.30;;
15871;SDS011;8035;51.962;7.162;2023-05-10T14:45:34;11.63;;;10.33;;
15871;SDS011;8035;51.962;7.162;2023-05-10T14:48:00;10.90;;;9.30;;
15871;SDS011;8035;51.962;7.162;2023-05-10T14:50:25;13.00;;;10.43;;
15871;SDS011;8035;51.962;7.162;2023-05-10T14:52:51;15.57;;;11.10;;
15871;SDS011;8035;51.962;7.162;2023-05-10T14:55:17;13.37;;;10.03;;
15871;SDS011;8035;51.962;7.162;2023-05-10T14:57:42;11.53;;;9.60;;
15871;SDS011;8035;51.962;7.162;2023-05-10T15:00:09;11.77;;;9.60;;
15871;SDS011;8035;51.962;7.162;2023-05-10T15:02:35;13.30;;;10.50;;
15871;SDS011;8035;51.962;7.162;2023-05-10T15:05:01;12.50;;;10.57;;
15871;SDS011;8035;51.962;7.162;2023-05-10T15:07:27;12.53;;;9.70;;
15871;SDS011;8035;51.962;7.162;2023-05-10T15:09:52;12.53;;;10.53;;